sensor_id;sensor_type;location;lat;lon;timestamp;P1;durP1;ratioP1;P2;durP2;ratioP2
16954;SDS011;8594;52.052;8.354;2022-12-11T00:00:10;57.97;;;24.20;;
16954;SDS011;8594;52.052;8.354;2022-12-11T00:02:39;54.37;;;22.03;;
16954;SDS011;8594;52.052;8.354;2022-12-11T00:05:06;59.13;;;22.27;;
16954;SDS011;8594;52.052;8.354;2022-12-11T00:07:34;57.70;;;23.27;;
16954;SDS011;8594;52.052;8.354;2022-12-11T00:10:01;64.47;;;25.50;;
16954;SDS011;8594;52.052;8.354;2022-12-11T00:12:29;50.00;;;21.70;;
16954;SDS011;8594;52.052;8.354;2022-12-11T00:14:58;65.10;;;24.17;;
16954;SDS011;8594;52.052;8.354;2022-12-11T00:17:25;60.30;;;23.63;;
16954;SDS011;8594;52.052;8.354;2022-12-11T00:19:52;60.03;;;25.83;;
16954;SDS011;8594;52.052;8.354;2022-12-11T00:22:19;65.23;;;25.40;;
16954;SDS011;8594;52.052;8.354;2022-12-11T00:24:46;73.90;;;25.80;;
16954;SDS011;8594;52.052;8.354;2022-12-11T00:27:13;72.93;;;26.73;;
16954;SDS011;8594;52.052;8.354;2022-12-11T00:29:40;84.13;;;29.73;;
16954;SDS011;8594;52.052;8.354;2022-12-11T00:32:09;81.57;;;27.57;;
16954;SDS011;8594;52.052;8.354;2022-12-11T00:34:36;72.77;;;27.67;;
16954;SDS011;8594;52.052;8.354;2022-12-11T00:37:03;66.57;;;26.83;;
16954;SDS011;8594;52.052;8.354;2022-12-11T00:39:30;71.53;;;26.80;;
16954;SDS011;8594;52.052;8.354;2022-12-11T00:41:56;74.77;;;27.37;;
16954;SDS011;8594;52.052;8.354;2022-12-11T00:44:23;75.60;;;28.20;;
16954;SDS011;8594;52.052;8.354;2022-12-11T00:46:50;73.67;;;26.13;;
16954;SDS011;8594;52.052;8.354;2022-12-11T00:49:19;68.13;;;26.13;;
16954;SDS011;8594;52.052;8.354;2022-12-11T00:51:46;77.97;;;26.23;;
16954;SDS011;8594;52.052;8.354;2022-12-11T00:54:13;66.67;;;24.90;;
16954;SDS011;8594;52.052;8.354;2022-12-11T00:56:40;85.10;;;28.40;;
16954;SDS011;8594;52.052;8.354;2022-12-11T00:59:08;72.93;;;27.37;;
16954;SDS011;8594;52.052;8.354;2022-12-11T01:01:35;75.47;;;26.57;;
16954;SDS011;8594;52.052;8.354;2022-12-11T01:04:01;66.23;;;27.10;;
16954;SDS011;8594;52.052;8.354;2022-12-11T01:06:30;87.53;;;29.57;;
16954;SDS011;8594;52.052;8.354;2022-12-11T01:08:57;78.73;;;28.87;;
16954;SDS011;8594;52.052;8.354;2022-12-11T01:11:38;68.17;;;27.47;;
16954;SDS011;8594;52.052;8.354;2022-12-11T01:14:06;66.77;;;25.00;;
16954;SDS011;8594;52.052;8.354;2022-12-11T01:16:37;52.93;;;23.10;;
16954;SDS011;8594;52.052;8.354;2022-12-11T01:19:04;47.67;;;22.30;;
16954;SDS011;8594;52.052;8.354;2022-12-11T01:21:33;50.53;;;21.47;;
16954;SDS011;8594;52.052;8.354;2022-12-11T01:24:00;46.43;;;21.83;;
16954;SDS011;8594;52.052;8.354;2022-12-11T01:26:27;48.03;;;21.67;;
16954;SDS011;8594;52.052;8.354;2022-12-11T01:28:54;43.47;;;19.43;;
16954;SDS011;8594;52.052;8.354;2022-12-11T01:31:21;43.60;;;19.27;;
16954;SDS011;8594;52.052;8.354;2022-12-11T01:33:48;45.03;;;20.63;;
16954;SDS011;8594;52.052;8.354;2022-12-11T01:36:16;48.47;;;20.83;;
16954;SDS011;8594;52.052;8.354;2022-12-11T01:38:47;46.07;;;20.67;;
16954;SDS011;8594;52.052;8.354;2022-12-11T01:41:15;47.17;;;21.20;;
16954;SDS011;8594;52.052;8.354;2022-12-11T01:43:59;44.87;;;19.63;;
16954;SDS011;8594;52.052;8.354;2022-12-11T01:46:30;42.90;;;19.70;;
16954;SDS011;8594;52.052;8.354;2022-12-11T01:48:59;46.50;;;20.63;;
16954;SDS011;8594;52.052;8.354;2022-12-11T01:51:30;37.13;;;19.00;;
16954;SDS011;8594;52.052;8.354;2022-12-11T01:54:03;39.40;;;19.10;;
16954;SDS011;8594;52.052;8.354;2022-12-11T01:56:36;44.13;;;20.37;;
16954;SDS011;8594;52.052;8.354;2022-12-11T01:59:07;41.90;;;18.97;;
16954;SDS011;8594;52.052;8.354;2022-12-11T02:01:37;38.83;;;18.57;;
16954;SDS011;8594;52.052;8.354;2022-12-11T02:04:08;45.80;;;19.13;;
16954;SDS011;8594;52.052;8.354;2022-12-11T02:06:37;37.60;;;17.90;;
16954;SDS011;8594;52.052;8.354;2022-12-11T02:09:08;40.83;;;18.00;;
16954;SDS011;8594;52.052;8.354;2022-12-11T02:11:54;41.93;;;19.47;;
16954;SDS011;8594;52.052;8.354;2022-12-11T02:14:30;39.33;;;18.60;;
16954;SDS011;8594;52.052;8.354;2022-12-11T02:17:08;35.67;;;17.37;;
16954;SDS011;8594;52.052;8.354;2022-12-11T02:19:43;40.70;;;19.50;;
16954;SDS011;8594;52.052;8.354;2022-12-11T02:22:23;41.43;;;19.47;;
16954;SDS011;8594;52.052;8.354;2022-12-11T02:25:06;40.53;;;19.80;;
16954;SDS011;8594;52.052;8.354;2022-12-11T02:27:46;39.20;;;19.30;;
16954;SDS011;8594;52.052;8.354;2022-12-11T02:30:22;36.13;;;18.67;;
16954;SDS011;8594;52.052;8.354;2022-12-11T02:32:52;38.93;;;18.77;;
16954;SDS011;8594;52.052;8.354;2022-12-11T02:35:23;42.70;;;19.80;;
16954;SDS011;8594;52.052;8.354;2022-12-11T02:38:01;40.57;;;19.87;;
16954;SDS011;8594;52.052;8.354;2022-12-11T02:40:34;41.80;;;19.57;;
16954;SDS011;8594;52.052;8.354;2022-12-11T02:43:06;48.17;;;21.87;;
16954;SDS011;8594;52.052;8.354;2022-12-11T02:45:40;42.73;;;20.47;;
16954;SDS011;8594;52.052;8.354;2022-12-11T02:48:11;46.40;;;21.00;;
16954;SDS011;8594;52.052;8.354;2022-12-11T02:50:43;44.13;;;19.60;;
16954;SDS011;8594;52.052;8.354;2022-12-11T02:53:15;45.80;;;19.80;;
16954;SDS011;8594;52.052;8.354;2022-12-11T02:55:51;49.33;;;20.73;;
16954;SDS011;8594;52.052;8.354;2022-12-11T02:58:27;50.17;;;21.97;;
16954;SDS011;8594;52.052;8.354;2022-12-11T03:00:58;57.50;;;22.53;;
16954;SDS011;8594;52.052;8.354;2022-12-11T03:03:26;57.80;;;22.53;;
16954;SDS011;8594;52.052;8.354;2022-12-11T03:05:55;59.67;;;22.77;;
16954;SDS011;8594;52.052;8.354;2022-12-11T03:08:22;57.07;;;24.27;;
16954;SDS011;8594;52.052;8.354;2022-12-11T03:10:50;55.50;;;24.37;;
16954;SDS011;8594;52.052;8.354;2022-12-11T03:13:17;53.47;;;23.53;;
16954;SDS011;8594;52.052;8.354;2022-12-11T03:15:49;62.73;;;23.47;;
16954;SDS011;8594;52.052;8.354;2022-12-11T03:18:33;55.63;;;23.13;;
16954;SDS011;8594;52.052;8.354;2022-12-11T03:21:11;58.63;;;24.13;;
16954;SDS011;8594;52.052;8.354;2022-12-11T03:23:47;61.03;;;23.90;;
16954;SDS011;8594;52.052;8.354;2022-12-11T03:26:20;65.13;;;25.63;;
16954;SDS011;8594;52.052;8.354;2022-12-11T03:28:50;74.97;;;29.90;;
16954;SDS011;8594;52.052;8.354;2022-12-11T03:31:26;77.90;;;26.17;;
16954;SDS011;8594;52.052;8.354;2022-12-11T03:34:04;69.57;;;27.00;;
16954;SDS011;8594;52.052;8.354;2022-12-11T03:36:40;70.83;;;26.33;;
16954;SDS011;8594;52.052;8.354;2022-12-11T03:39:12;68.00;;;25.67;;
16954;SDS011;8594;52.052;8.354;2022-12-11T03:41:46;80.37;;;29.17;;
16954;SDS011;8594;52.052;8.354;2022-12-11T03:44:16;79.67;;;28.47;;
16954;SDS011;8594;52.052;8.354;2022-12-11T03:46:47;78.93;;;27.23;;
16954;SDS011;8594;52.052;8.354;2022-12-11T03:49:18;81.53;;;27.90;;
16954;SDS011;8594;52.052;8.354;2022-12-11T03:51:52;81.53;;;28.83;;
16954;SDS011;8594;52.052;8.354;2022-12-11T03:54:22;81.80;;;28.47;;
16954;SDS011;8594;52.052;8.354;2022-12-11T03:56:52;82.80;;;27.37;;
16954;SDS011;8594;52.052;8.354;2022-12-11T03:59:23;76.67;;;27.37;;
16954;SDS011;8594;52.052;8.354;2022-12-11T04:01:52;84.03;;;27.83;;
16954;SDS011;8594;52.052;8.354;2022-12-11T04:04:19;70.33;;;23.23;;
16954;SDS011;8594;52.052;8.354;2022-12-11T04:06:46;81.93;;;26.27;;
16954;SDS011;8594;52.052;8.354;2022-12-11T04:09:13;77.00;;;24.37;;
16954;SDS011;8594;52.052;8.354;2022-12-11T04:11:40;69.70;;;23.43;;
16954;SDS011;8594;52.052;8.354;2022-12-11T04:14:08;73.77;;;23.23;;
16954;SDS011;8594;52.052;8.354;2022-12-11T04:16:58;77.27;;;23.07;;
16954;SDS011;8594;52.052;8.354;2022-12-11T04:19:26;72.37;;;22.97;;
16954;SDS011;8594;52.052;8.354;2022-12-11T04:22:11;66.20;;;22.27;;
16954;SDS011;8594;52.052;8.354;2022-12-11T04:25:10;75.30;;;23.10;;
16954;SDS011;8594;52.052;8.354;2022-12-11T04:27:37;72.43;;;21.97;;
16954;SDS011;8594;52.052;8.354;2022-12-11T04:30:17;73.37;;;23.70;;
16954;SDS011;8594;52.052;8.354;2022-12-11T04:32:49;75.60;;;23.97;;
16954;SDS011;8594;52.052;8.354;2022-12-11T04:35:17;71.93;;;24.20;;
16954;SDS011;8594;52.052;8.354;2022-12-11T04:37:45;77.10;;;25.03;;
16954;SDS011;8594;52.052;8.354;2022-12-11T04:40:14;75.97;;;22.17;;
16954;SDS011;8594;52.052;8.354;2022-12-11T04:42:43;68.03;;;21.87;;
16954;SDS011;8594;52.052;8.354;2022-12-11T04:45:11;69.07;;;21.20;;
16954;SDS011;8594;52.052;8.354;2022-12-11T04:47:39;71.93;;;20.90;;
16954;SDS011;8594;52.052;8.354;2022-12-11T04:50:09;70.17;;;21.40;;
16954;SDS011;8594;52.052;8.354;2022-12-11T04:52:38;70.97;;;20.63;;
16954;SDS011;8594;52.052;8.354;2022-12-11T04:55:06;66.37;;;19.10;;
16954;SDS011;8594;52.052;8.354;2022-12-11T04:57:34;73.70;;;22.10;;
16954;SDS011;8594;52.052;8.354;2022-12-11T05:00:02;70.10;;;20.83;;
16954;SDS011;8594;52.052;8.354;2022-12-11T05:02:33;65.97;;;21.10;;
16954;SDS011;8594;52.052;8.354;2022-12-11T05:05:01;68.40;;;22.37;;
16954;SDS011;8594;52.052;8.354;2022-12-11T05:07:30;72.97;;;20.43;;
16954;SDS011;8594;52.052;8.354;2022-12-11T05:09:58;58.90;;;18.03;;
16954;SDS011;8594;52.052;8.354;2022-12-11T05:12:24;56.70;;;18.50;;
16954;SDS011;8594;52.052;8.354;2022-12-11T05:14:52;71.20;;;20.77;;
16954;SDS011;8594;52.052;8.354;2022-12-11T05:17:19;73.53;;;20.73;;
16954;SDS011;8594;52.052;8.354;2022-12-11T05:19:47;69.73;;;22.20;;
16954;SDS011;8594;52.052;8.354;2022-12-11T05:22:15;74.23;;;20.80;;
16954;SDS011;8594;52.052;8.354;2022-12-11T05:24:44;70.07;;;20.63;;
16954;SDS011;8594;52.052;8.354;2022-12-11T05:27:11;68.27;;;20.63;;
16954;SDS011;8594;52.052;8.354;2022-12-11T05:29:39;76.67;;;21.13;;
16954;SDS011;8594;52.052;8.354;2022-12-11T05:32:06;73.73;;;21.30;;
16954;SDS011;8594;52.052;8.354;2022-12-11T05:34:33;68.87;;;20.93;;
16954;SDS011;8594;52.052;8.354;2022-12-11T05:37:00;70.90;;;21.03;;
16954;SDS011;8594;52.052;8.354;2022-12-11T05:39:27;68.10;;;20.43;;
16954;SDS011;8594;52.052;8.354;2022-12-11T05:41:56;72.00;;;20.73;;
16954;SDS011;8594;52.052;8.354;2022-12-11T05:44:23;61.50;;;19.93;;
16954;SDS011;8594;52.052;8.354;2022-12-11T05:46:51;67.47;;;20.87;;
16954;SDS011;8594;52.052;8.354;2022-12-11T05:49:18;68.43;;;20.47;;
16954;SDS011;8594;52.052;8.354;2022-12-11T05:51:45;73.90;;;20.87;;
16954;SDS011;8594;52.052;8.354;2022-12-11T05:54:12;62.87;;;20.93;;
16954;SDS011;8594;52.052;8.354;2022-12-11T05:56:39;60.07;;;19.20;;
16954;SDS011;8594;52.052;8.354;2022-12-11T05:59:07;74.43;;;22.47;;
16954;SDS011;8594;52.052;8.354;2022-12-11T06:01:35;75.43;;;21.50;;
16954;SDS011;8594;52.052;8.354;2022-12-11T06:04:05;75.57;;;21.70;;
16954;SDS011;8594;52.052;8.354;2022-12-11T06:06:33;66.97;;;20.23;;
16954;SDS011;8594;52.052;8.354;2022-12-11T06:09:02;77.20;;;22.97;;
16954;SDS011;8594;52.052;8.354;2022-12-11T06:11:30;70.67;;;20.70;;
16954;SDS011;8594;52.052;8.354;2022-12-11T06:13:59;75.93;;;21.87;;
16954;SDS011;8594;52.052;8.354;2022-12-11T06:16:29;70.57;;;21.03;;
16954;SDS011;8594;52.052;8.354;2022-12-11T06:18:56;62.47;;;18.97;;
16954;SDS011;8594;52.052;8.354;2022-12-11T06:21:24;58.50;;;18.13;;
16954;SDS011;8594;52.052;8.354;2022-12-11T06:23:54;53.43;;;16.27;;
16954;SDS011;8594;52.052;8.354;2022-12-11T06:26:24;43.43;;;14.93;;
16954;SDS011;8594;52.052;8.354;2022-12-11T06:28:52;52.33;;;16.67;;
16954;SDS011;8594;52.052;8.354;2022-12-11T06:31:19;52.57;;;17.33;;
16954;SDS011;8594;52.052;8.354;2022-12-11T06:33:48;47.47;;;16.53;;
16954;SDS011;8594;52.052;8.354;2022-12-11T06:36:16;61.40;;;19.10;;
16954;SDS011;8594;52.052;8.354;2022-12-11T06:38:45;58.97;;;17.83;;
16954;SDS011;8594;52.052;8.354;2022-12-11T06:41:13;51.23;;;17.20;;
16954;SDS011;8594;52.052;8.354;2022-12-11T06:43:40;50.53;;;15.67;;
16954;SDS011;8594;52.052;8.354;2022-12-11T06:46:08;59.13;;;16.70;;
16954;SDS011;8594;52.052;8.354;2022-12-11T06:48:38;57.73;;;16.70;;
16954;SDS011;8594;52.052;8.354;2022-12-11T06:51:09;49.47;;;17.03;;
16954;SDS011;8594;52.052;8.354;2022-12-11T06:53:39;56.33;;;18.07;;
16954;SDS011;8594;52.052;8.354;2022-12-11T06:56:07;57.90;;;17.87;;
16954;SDS011;8594;52.052;8.354;2022-12-11T06:58:37;62.10;;;19.60;;
16954;SDS011;8594;52.052;8.354;2022-12-11T07:01:11;56.97;;;18.23;;
16954;SDS011;8594;52.052;8.354;2022-12-11T07:03:42;62.90;;;18.97;;
16954;SDS011;8594;52.052;8.354;2022-12-11T07:06:10;61.30;;;21.00;;
16954;SDS011;8594;52.052;8.354;2022-12-11T07:08:37;62.83;;;20.07;;
16954;SDS011;8594;52.052;8.354;2022-12-11T07:11:05;62.47;;;19.37;;
16954;SDS011;8594;52.052;8.354;2022-12-11T07:13:35;71.37;;;21.33;;
16954;SDS011;8594;52.052;8.354;2022-12-11T07:16:02;60.13;;;20.27;;
16954;SDS011;8594;52.052;8.354;2022-12-11T07:18:34;72.00;;;21.30;;
16954;SDS011;8594;52.052;8.354;2022-12-11T07:21:03;68.67;;;21.70;;
16954;SDS011;8594;52.052;8.354;2022-12-11T07:23:32;54.53;;;19.73;;
16954;SDS011;8594;52.052;8.354;2022-12-11T07:26:02;61.37;;;19.97;;
16954;SDS011;8594;52.052;8.354;2022-12-11T07:28:30;60.47;;;19.97;;
16954;SDS011;8594;52.052;8.354;2022-12-11T07:30:57;61.13;;;18.90;;
16954;SDS011;8594;52.052;8.354;2022-12-11T07:33:24;53.60;;;19.33;;
16954;SDS011;8594;52.052;8.354;2022-12-11T07:35:51;55.63;;;18.93;;
16954;SDS011;8594;52.052;8.354;2022-12-11T07:38:18;53.90;;;17.83;;
16954;SDS011;8594;52.052;8.354;2022-12-11T07:40:47;50.30;;;17.67;;
16954;SDS011;8594;52.052;8.354;2022-12-11T07:43:14;55.70;;;17.63;;
16954;SDS011;8594;52.052;8.354;2022-12-11T07:45:41;49.70;;;16.83;;
16954;SDS011;8594;52.052;8.354;2022-12-11T07:48:08;51.83;;;17.67;;
16954;SDS011;8594;52.052;8.354;2022-12-11T07:50:36;45.97;;;16.80;;
16954;SDS011;8594;52.052;8.354;2022-12-11T07:53:03;55.03;;;17.20;;
16954;SDS011;8594;52.052;8.354;2022-12-11T07:55:31;48.80;;;17.47;;
16954;SDS011;8594;52.052;8.354;2022-12-11T07:58:00;52.77;;;18.63;;
16954;SDS011;8594;52.052;8.354;2022-12-11T08:00:26;54.20;;;18.47;;
16954;SDS011;8594;52.052;8.354;2022-12-11T08:02:53;90.17;;;32.70;;
16954;SDS011;8594;52.052;8.354;2022-12-11T08:05:20;45.03;;;17.00;;
16954;SDS011;8594;52.052;8.354;2022-12-11T08:07:47;47.93;;;17.50;;
16954;SDS011;8594;52.052;8.354;2022-12-11T08:10:14;44.83;;;17.47;;
16954;SDS011;8594;52.052;8.354;2022-12-11T08:12:41;41.77;;;15.87;;
16954;SDS011;8594;52.052;8.354;2022-12-11T08:15:10;39.17;;;14.73;;
16954;SDS011;8594;52.052;8.354;2022-12-11T08:17:37;44.53;;;16.87;;
16954;SDS011;8594;52.052;8.354;2022-12-11T08:20:04;38.00;;;14.77;;
16954;SDS011;8594;52.052;8.354;2022-12-11T08:22:33;35.83;;;14.73;;
16954;SDS011;8594;52.052;8.354;2022-12-11T08:25:00;37.77;;;14.03;;
16954;SDS011;8594;52.052;8.354;2022-12-11T08:27:27;42.70;;;16.50;;
16954;SDS011;8594;52.052;8.354;2022-12-11T08:29:54;44.30;;;15.63;;
16954;SDS011;8594;52.052;8.354;2022-12-11T08:32:22;41.80;;;16.27;;
16954;SDS011;8594;52.052;8.354;2022-12-11T08:34:49;39.43;;;15.27;;
16954;SDS011;8594;52.052;8.354;2022-12-11T08:37:17;40.80;;;14.87;;
16954;SDS011;8594;52.052;8.354;2022-12-11T08:39:44;38.57;;;13.97;;
16954;SDS011;8594;52.052;8.354;2022-12-11T08:42:11;32.40;;;13.47;;
16954;SDS011;8594;52.052;8.354;2022-12-11T08:44:38;37.33;;;15.20;;
16954;SDS011;8594;52.052;8.354;2022-12-11T08:47:05;37.70;;;13.83;;
16954;SDS011;8594;52.052;8.354;2022-12-11T08:49:35;34.40;;;12.50;;
16954;SDS011;8594;52.052;8.354;2022-12-11T08:52:02;35.10;;;12.63;;
16954;SDS011;8594;52.052;8.354;2022-12-11T08:54:30;27.07;;;10.67;;
16954;SDS011;8594;52.052;8.354;2022-12-11T08:56:57;33.40;;;13.27;;
16954;SDS011;8594;52.052;8.354;2022-12-11T08:59:24;30.00;;;10.87;;
16954;SDS011;8594;52.052;8.354;2022-12-11T09:01:51;21.90;;;10.00;;
16954;SDS011;8594;52.052;8.354;2022-12-11T09:04:20;20.67;;;9.03;;
16954;SDS011;8594;52.052;8.354;2022-12-11T09:06:49;24.70;;;9.37;;
16954;SDS011;8594;52.052;8.354;2022-12-11T09:09:15;23.60;;;8.40;;
16954;SDS011;8594;52.052;8.354;2022-12-11T09:11:43;23.33;;;9.03;;
16954;SDS011;8594;52.052;8.354;2022-12-11T09:14:10;30.67;;;10.40;;
16954;SDS011;8594;52.052;8.354;2022-12-11T09:16:38;23.10;;;10.63;;
16954;SDS011;8594;52.052;8.354;2022-12-11T09:19:06;25.67;;;11.07;;
16954;SDS011;8594;52.052;8.354;2022-12-11T09:21:38;28.10;;;10.40;;
16954;SDS011;8594;52.052;8.354;2022-12-11T09:24:09;28.93;;;11.37;;
16954;SDS011;8594;52.052;8.354;2022-12-11T09:26:37;25.73;;;11.90;;
16954;SDS011;8594;52.052;8.354;2022-12-11T09:29:05;24.43;;;10.20;;
16954;SDS011;8594;52.052;8.354;2022-12-11T09:31:34;25.37;;;10.87;;
16954;SDS011;8594;52.052;8.354;2022-12-11T09:34:02;27.77;;;11.27;;
16954;SDS011;8594;52.052;8.354;2022-12-11T09:36:32;27.20;;;12.00;;
16954;SDS011;8594;52.052;8.354;2022-12-11T09:39:00;27.90;;;11.30;;
16954;SDS011;8594;52.052;8.354;2022-12-11T09:41:34;30.17;;;11.97;;
16954;SDS011;8594;52.052;8.354;2022-12-11T09:44:15;27.77;;;12.63;;
16954;SDS011;8594;52.052;8.354;2022-12-11T09:46:53;28.37;;;11.87;;
16954;SDS011;8594;52.052;8.354;2022-12-11T09:49:24;26.87;;;10.47;;
16954;SDS011;8594;52.052;8.354;2022-12-11T09:52:02;23.07;;;10.03;;
16954;SDS011;8594;52.052;8.354;2022-12-11T09:54:38;28.60;;;11.07;;
16954;SDS011;8594;52.052;8.354;2022-12-11T10:00:13;26.43;;;11.00;;
16954;SDS011;8594;52.052;8.354;2022-12-11T10:02:58;25.00;;;11.77;;
16954;SDS011;8594;52.052;8.354;2022-12-11T10:06:09;25.50;;;12.17;;
16954;SDS011;8594;52.052;8.354;2022-12-11T10:08:48;27.27;;;11.00;;
16954;SDS011;8594;52.052;8.354;2022-12-11T10:11:43;23.57;;;10.20;;
16954;SDS011;8594;52.052;8.354;2022-12-11T10:14:30;27.23;;;10.60;;
16954;SDS011;8594;52.052;8.354;2022-12-11T10:17:12;20.97;;;9.80;;
16954;SDS011;8594;52.052;8.354;2022-12-11T10:19:45;28.00;;;10.77;;
16954;SDS011;8594;52.052;8.354;2022-12-11T10:22:16;22.23;;;10.17;;
16954;SDS011;8594;52.052;8.354;2022-12-11T10:24:49;26.43;;;9.70;;
16954;SDS011;8594;52.052;8.354;2022-12-11T10:27:23;27.83;;;9.80;;
16954;SDS011;8594;52.052;8.354;2022-12-11T10:29:58;24.90;;;10.73;;
16954;SDS011;8594;52.052;8.354;2022-12-11T10:32:41;27.77;;;10.03;;
16954;SDS011;8594;52.052;8.354;2022-12-11T10:35:30;25.77;;;11.07;;
16954;SDS011;8594;52.052;8.354;2022-12-11T10:38:09;23.87;;;10.73;;
16954;SDS011;8594;52.052;8.354;2022-12-11T10:40:42;24.40;;;10.20;;
16954;SDS011;8594;52.052;8.354;2022-12-11T10:43:11;26.33;;;10.30;;
16954;SDS011;8594;52.052;8.354;2022-12-11T10:45:48;25.03;;;10.97;;
16954;SDS011;8594;52.052;8.354;2022-12-11T10:48:17;30.87;;;11.97;;
16954;SDS011;8594;52.052;8.354;2022-12-11T10:50:44;27.63;;;12.37;;
16954;SDS011;8594;52.052;8.354;2022-12-11T10:53:25;25.23;;;12.27;;
16954;SDS011;8594;52.052;8.354;2022-12-11T10:55:53;32.10;;;12.63;;
16954;SDS011;8594;52.052;8.354;2022-12-11T10:58:22;36.23;;;13.37;;
16954;SDS011;8594;52.052;8.354;2022-12-11T11:01:03;31.20;;;12.77;;
16954;SDS011;8594;52.052;8.354;2022-12-11T11:03:35;35.00;;;12.90;;
16954;SDS011;8594;52.052;8.354;2022-12-11T11:06:19;36.37;;;13.60;;
16954;SDS011;8594;52.052;8.354;2022-12-11T11:08:48;30.10;;;12.20;;
16954;SDS011;8594;52.052;8.354;2022-12-11T11:11:22;30.97;;;12.13;;
16954;SDS011;8594;52.052;8.354;2022-12-11T11:14:04;33.40;;;13.67;;
16954;SDS011;8594;52.052;8.354;2022-12-11T11:16:40;32.13;;;12.70;;
16954;SDS011;8594;52.052;8.354;2022-12-11T11:19:15;30.30;;;12.90;;
16954;SDS011;8594;52.052;8.354;2022-12-11T11:21:49;37.60;;;14.13;;
16954;SDS011;8594;52.052;8.354;2022-12-11T11:24:22;28.77;;;11.87;;
16954;SDS011;8594;52.052;8.354;2022-12-11T11:26:55;30.60;;;11.87;;
16954;SDS011;8594;52.052;8.354;2022-12-11T11:29:25;35.30;;;12.97;;
16954;SDS011;8594;52.052;8.354;2022-12-11T11:31:57;29.40;;;12.13;;
16954;SDS011;8594;52.052;8.354;2022-12-11T11:34:41;31.20;;;12.80;;
16954;SDS011;8594;52.052;8.354;2022-12-11T11:37:15;34.40;;;13.60;;
16954;SDS011;8594;52.052;8.354;2022-12-11T11:39:56;33.67;;;12.37;;
16954;SDS011;8594;52.052;8.354;2022-12-11T11:42:34;42.27;;;11.97;;
16954;SDS011;8594;52.052;8.354;2022-12-11T11:45:11;25.37;;;11.53;;
16954;SDS011;8594;52.052;8.354;2022-12-11T11:47:47;30.53;;;12.43;;
16954;SDS011;8594;52.052;8.354;2022-12-11T11:50:24;28.87;;;12.53;;
16954;SDS011;8594;52.052;8.354;2022-12-11T11:53:00;28.53;;;11.63;;
16954;SDS011;8594;52.052;8.354;2022-12-11T11:55:40;29.17;;;11.83;;
16954;SDS011;8594;52.052;8.354;2022-12-11T11:58:19;25.27;;;11.50;;
16954;SDS011;8594;52.052;8.354;2022-12-11T12:00:52;31.33;;;12.43;;
16954;SDS011;8594;52.052;8.354;2022-12-11T12:03:21;27.37;;;12.17;;
16954;SDS011;8594;52.052;8.354;2022-12-11T12:05:52;29.00;;;10.73;;
16954;SDS011;8594;52.052;8.354;2022-12-11T12:08:28;32.07;;;11.40;;
16954;SDS011;8594;52.052;8.354;2022-12-11T12:11:09;33.77;;;12.07;;
16954;SDS011;8594;52.052;8.354;2022-12-11T12:13:53;26.73;;;12.07;;
16954;SDS011;8594;52.052;8.354;2022-12-11T12:16:38;35.53;;;13.10;;
16954;SDS011;8594;52.052;8.354;2022-12-11T12:19:21;31.83;;;12.10;;
16954;SDS011;8594;52.052;8.354;2022-12-11T12:22:08;26.10;;;10.77;;
16954;SDS011;8594;52.052;8.354;2022-12-11T12:24:54;29.03;;;12.43;;
16954;SDS011;8594;52.052;8.354;2022-12-11T12:27:33;33.17;;;12.93;;
16954;SDS011;8594;52.052;8.354;2022-12-11T12:30:13;36.07;;;12.40;;
16954;SDS011;8594;52.052;8.354;2022-12-11T12:32:45;33.10;;;12.37;;
16954;SDS011;8594;52.052;8.354;2022-12-11T12:35:34;26.90;;;11.57;;
16954;SDS011;8594;52.052;8.354;2022-12-11T12:38:05;30.03;;;11.03;;
16954;SDS011;8594;52.052;8.354;2022-12-11T12:40:45;31.20;;;10.67;;
16954;SDS011;8594;52.052;8.354;2022-12-11T12:46:27;25.43;;;11.03;;
16954;SDS011;8594;52.052;8.354;2022-12-11T12:49:14;37.87;;;12.50;;
16954;SDS011;8594;52.052;8.354;2022-12-11T12:51:51;29.20;;;11.57;;
16954;SDS011;8594;52.052;8.354;2022-12-11T12:54:20;35.10;;;13.07;;
16954;SDS011;8594;52.052;8.354;2022-12-11T12:56:48;28.97;;;11.93;;
16954;SDS011;8594;52.052;8.354;2022-12-11T12:59:19;30.27;;;12.13;;
16954;SDS011;8594;52.052;8.354;2022-12-11T13:01:49;35.57;;;12.83;;
16954;SDS011;8594;52.052;8.354;2022-12-11T13:04:33;38.37;;;12.50;;
16954;SDS011;8594;52.052;8.354;2022-12-11T13:07:13;33.73;;;12.80;;
16954;SDS011;8594;52.052;8.354;2022-12-11T13:10:04;36.63;;;13.33;;
16954;SDS011;8594;52.052;8.354;2022-12-11T13:12:47;31.50;;;11.90;;
16954;SDS011;8594;52.052;8.354;2022-12-11T13:15:25;27.07;;;11.90;;
16954;SDS011;8594;52.052;8.354;2022-12-11T13:17:56;28.47;;;11.93;;
16954;SDS011;8594;52.052;8.354;2022-12-11T13:20:26;25.57;;;10.87;;
16954;SDS011;8594;52.052;8.354;2022-12-11T13:23:17;30.93;;;12.03;;
16954;SDS011;8594;52.052;8.354;2022-12-11T13:25:53;33.13;;;13.17;;
16954;SDS011;8594;52.052;8.354;2022-12-11T13:28:32;30.70;;;13.27;;
16954;SDS011;8594;52.052;8.354;2022-12-11T13:31:27;37.00;;;13.73;;
16954;SDS011;8594;52.052;8.354;2022-12-11T13:34:05;32.90;;;13.00;;
16954;SDS011;8594;52.052;8.354;2022-12-11T13:36:44;32.03;;;12.63;;
16954;SDS011;8594;52.052;8.354;2022-12-11T13:39:17;41.57;;;14.40;;
16954;SDS011;8594;52.052;8.354;2022-12-11T13:41:50;37.90;;;14.90;;
16954;SDS011;8594;52.052;8.354;2022-12-11T13:44:25;44.58;;;19.45;;
16954;SDS011;8594;52.052;8.354;2022-12-11T13:46:57;38.10;;;14.23;;
16954;SDS011;8594;52.052;8.354;2022-12-11T13:49:28;40.33;;;14.50;;
16954;SDS011;8594;52.052;8.354;2022-12-11T13:52:01;35.40;;;13.87;;
16954;SDS011;8594;52.052;8.354;2022-12-11T13:54:33;44.80;;;16.07;;
16954;SDS011;8594;52.052;8.354;2022-12-11T13:57:02;38.70;;;13.90;;
16954;SDS011;8594;52.052;8.354;2022-12-11T13:59:46;39.03;;;14.23;;
16954;SDS011;8594;52.052;8.354;2022-12-11T14:02:18;33.97;;;14.37;;
16954;SDS011;8594;52.052;8.354;2022-12-11T14:04:50;40.63;;;13.23;;
16954;SDS011;8594;52.052;8.354;2022-12-11T14:07:22;41.70;;;14.37;;
16954;SDS011;8594;52.052;8.354;2022-12-11T14:09:54;36.13;;;12.87;;
16954;SDS011;8594;52.052;8.354;2022-12-11T14:12:27;33.53;;;12.90;;
16954;SDS011;8594;52.052;8.354;2022-12-11T14:14:55;36.97;;;12.70;;
16954;SDS011;8594;52.052;8.354;2022-12-11T14:17:27;42.13;;;15.03;;
16954;SDS011;8594;52.052;8.354;2022-12-11T14:19:57;31.63;;;13.00;;
16954;SDS011;8594;52.052;8.354;2022-12-11T14:22:28;33.63;;;13.13;;
16954;SDS011;8594;52.052;8.354;2022-12-11T14:24:57;32.93;;;13.40;;
16954;SDS011;8594;52.052;8.354;2022-12-11T14:27:27;34.73;;;13.00;;
16954;SDS011;8594;52.052;8.354;2022-12-11T14:29:55;40.37;;;13.83;;
16954;SDS011;8594;52.052;8.354;2022-12-11T14:32:24;38.00;;;13.60;;
16954;SDS011;8594;52.052;8.354;2022-12-11T14:35:00;33.73;;;13.63;;
16954;SDS011;8594;52.052;8.354;2022-12-11T14:37:33;34.27;;;13.90;;
16954;SDS011;8594;52.052;8.354;2022-12-11T14:40:04;43.47;;;14.80;;
16954;SDS011;8594;52.052;8.354;2022-12-11T14:42:35;34.97;;;13.50;;
16954;SDS011;8594;52.052;8.354;2022-12-11T14:45:11;40.43;;;14.47;;
16954;SDS011;8594;52.052;8.354;2022-12-11T14:47:46;34.63;;;13.37;;
16954;SDS011;8594;52.052;8.354;2022-12-11T14:50:15;39.30;;;13.67;;
16954;SDS011;8594;52.052;8.354;2022-12-11T14:52:47;33.77;;;13.37;;
16954;SDS011;8594;52.052;8.354;2022-12-11T14:55:21;37.97;;;14.53;;
16954;SDS011;8594;52.052;8.354;2022-12-11T14:57:53;34.23;;;13.90;;
16954;SDS011;8594;52.052;8.354;2022-12-11T15:00:24;34.97;;;14.10;;
16954;SDS011;8594;52.052;8.354;2022-12-11T15:02:59;39.23;;;14.20;;
16954;SDS011;8594;52.052;8.354;2022-12-11T15:05:29;37.53;;;14.53;;
16954;SDS011;8594;52.052;8.354;2022-12-11T15:07:58;37.73;;;14.23;;